Time;durP1;ratioP1;P1;durP2;ratioP2;P2;SDS_P1;SDS_P2;PMS_P1;PMS_P2;Temp;Humidity;BMP_temperature;BMP_pressure;BME280_temperature;BME280_humidity;BME280_pressure;Samples;Min_cycle;Max_cycle;Signal;HPM_P1;HPM_P2
2023/09/16 00:00:22;;;;;;;10.57;6.88;;;;;;;;;;2581026;23;20446;-91
2023/09/16 00:01:22;;;;;;;10.80;7.63;;;;;;;;;;2584687;23;20059;-91
2023/09/16 00:02:23;;;;;;;9.30;6.70;;;;;;;;;;2581515;23;20046;-91
2023/09/16 00:03:23;;;;;;;12.60;8.77;;;;;;;;;;2569025;23;19997;-91
2023/09/16 00:04:23;;;;;;;9.63;7.70;;;;;;;;;;2569174;23;20097;-91
2023/09/16 00:05:24;;;;;;;8.73;6.22;;;;;;;;;;2568885;23;20045;-91
2023/09/16 00:06:24;;;;;;;9.23;7.90;;;;;;;;;;2568862;23;20048;-91
2023/09/16 00:07:25;;;;;;;8.82;7.35;;;;;;;;;;2568653;23;20142;-91
2023/09/16 00:08:25;;;;;;;9.02;6.93;;;;;;;;;;2568569;23;20050;-91
2023/09/16 00:09:25;;;;;;;10.80;7.95;;;;;;;;;;2581074;23;20023;-91
2023/09/16 00:10:26;;;;;;;9.95;7.68;;;;;;;;;;2580900;23;20423;-91
2023/09/16 00:11:27;;;;;;;10.65;8.52;;;;;;;;;;2583857;23;20004;-91
2023/09/16 00:12:28;;;;;;;10.45;7.40;;;;;;;;;;2581221;23;20480;-91
2023/09/16 00:13:28;;;;;;;10.10;7.05;;;;;;;;;;2568611;23;20119;-93
2023/09/16 00:14:29;;;;;;;11.50;8.73;;;;;;;;;;2568765;23;20004;-92
2023/09/16 00:15:30;;;;;;;9.60;7.60;;;;;;;;;;2581288;23;20000;-92
2023/09/16 00:16:30;;;;;;;13.43;7.93;;;;;;;;;;2568430;23;20016;-91
2023/09/16 00:17:30;;;;;;;9.82;8.15;;;;;;;;;;2568232;23;20001;-92
2023/09/16 00:18:31;;;;;;;10.48;8.38;;;;;;;;;;2583694;23;20008;-92
2023/09/16 00:19:33;;;;;;;10.75;8.13;;;;;;;;;;2580948;23;20007;-90
2023/09/16 00:20:34;;;;;;;9.50;7.43;;;;;;;;;;2571536;23;20023;-92
2023/09/16 00:21:35;;;;;;;9.23;8.30;;;;;;;;;;2573680;23;20031;-91
2023/09/16 00:22:36;;;;;;;10.80;7.18;;;;;;;;;;2581092;23;20008;-91
2023/09/16 00:23:37;;;;;;;9.50;8.35;;;;;;;;;;2568471;23;20130;-91
2023/09/16 00:24:39;;;;;;;11.82;9.13;;;;;;;;;;2568707;23;20081;-91
2023/09/16 00:25:40;;;;;;;10.75;8.30;;;;;;;;;;2568465;23;20004;-90
2023/09/16 00:26:41;;;;;;;10.05;8.27;;;;;;;;;;2580678;23;20026;-92
2023/09/16 00:27:41;;;;;;;10.90;9.13;;;;;;;;;;2568600;23;20028;-91
2023/09/16 00:28:41;;;;;;;10.50;8.90;;;;;;;;;;2568483;23;20351;-91
2023/09/16 00:29:42;;;;;;;10.13;9.07;;;;;;;;;;2581696;23;20066;-91
2023/09/16 00:30:48;;;;;;;10.50;8.98;;;;;;;;;;2568617;23;20016;-91
2023/09/16 00:31:48;;;;;;;10.00;7.55;;;;;;;;;;2570988;23;20023;-91
2023/09/16 00:32:49;;;;;;;10.15;8.95;;;;;;;;;;2568594;23;20382;-91
2023/09/16 00:33:49;;;;;;;11.40;9.68;;;;;;;;;;2582570;23;20000;-91
2023/09/16 00:34:51;;;;;;;12.98;8.77;;;;;;;;;;2581235;23;20012;-91
2023/09/16 00:35:51;;;;;;;13.70;8.75;;;;;;;;;;2582746;22;20010;-91
2023/09/16 00:36:51;;;;;;;12.98;11.18;;;;;;;;;;2580964;23;20011;-91
2023/09/16 00:37:52;;;;;;;15.82;11.30;;;;;;;;;;2581285;23;20023;-91
2023/09/16 00:38:52;;;;;;;14.05;10.65;;;;;;;;;;2582553;23;20050;-91
2023/09/16 00:39:52;;;;;;;14.65;12.48;;;;;;;;;;2596085;22;20290;-91
2023/09/16 00:40:53;;;;;;;13.40;9.77;;;;;;;;;;2581220;23;20016;-91
2023/09/16 00:41:53;;;;;;;13.23;10.40;;;;;;;;;;2581128;23;20394;-90
2023/09/16 00:42:54;;;;;;;12.15;10.82;;;;;;;;;;2568575;23;20004;-91
2023/09/16 00:43:55;;;;;;;13.60;10.88;;;;;;;;;;2582143;23;20027;-91
2023/09/16 00:44:55;;;;;;;14.55;10.68;;;;;;;;;;2581260;23;20012;-91
2023/09/16 00:45:56;;;;;;;16.70;14.60;;;;;;;;;;2568695;23;20374;-91
2023/09/16 00:46:56;;;;;;;12.77;9.82;;;;;;;;;;2582146;23;20000;-91
2023/09/16 00:47:57;;;;;;;16.30;13.55;;;;;;;;;;2595870;22;20480;-91
2023/09/16 00:48:59;;;;;;;13.63;12.18;;;;;;;;;;2581589;23;20008;-92
2023/09/16 00:50:00;;;;;;;19.42;14.93;;;;;;;;;;2568856;23;20119;-91
2023/09/16 00:51:00;;;;;;;15.32;11.50;;;;;;;;;;2568703;23;20019;-91
2023/09/16 00:52:01;;;;;;;15.63;11.95;;;;;;;;;;2568979;23;20373;-90
2023/09/16 00:53:03;;;;;;;15.43;13.32;;;;;;;;;;2569141;23;20017;-92
2023/09/16 00:54:03;;;;;;;17.42;13.20;;;;;;;;;;2582069;22;20346;-92
2023/09/16 00:55:04;;;;;;;15.45;12.70;;;;;;;;;;2595341;22;20192;-91
2023/09/16 00:56:04;;;;;;;15.45;12.65;;;;;;;;;;2595157;22;20002;-92
2023/09/16 00:57:09;;;;;;;17.13;14.13;;;;;;;;;;2581071;23;20005;-91
2023/09/16 00:58:11;;;;;;;16.15;11.43;;;;;;;;;;2569146;23;20350;-91
2023/09/16 00:59:12;;;;;;;17.45;13.80;;;;;;;;;;2586070;22;19996;-91
2023/09/16 01:00:16;;;;;;;16.50;13.60;;;;;;;;;;2581176;23;20464;-91
2023/09/16 01:01:17;;;;;;;15.18;11.98;;;;;;;;;;2573039;23;20050;-92
2023/09/16 01:02:17;;;;;;;16.20;12.85;;;;;;;;;;2585142;23;19996;-91
2023/09/16 01:03:19;;;;;;;16.40;12.30;;;;;;;;;;2581608;23;20051;-91
2023/09/16 01:04:21;;;;;;;15.50;13.45;;;;;;;;;;2581655;22;20008;-91
2023/09/16 01:05:22;;;;;;;16.35;12.95;;;;;;;;;;2597859;22;20007;-91
2023/09/16 01:06:23;;;;;;;15.68;13.77;;;;;;;;;;2581399;23;20055;-90
2023/09/16 01:07:24;;;;;;;15.50;13.70;;;;;;;;;;2574123;23;20011;-92
2023/09/16 01:08:25;;;;;;;15.65;11.35;;;;;;;;;;2597374;22;20031;-92
2023/09/16 01:09:25;;;;;;;17.45;13.43;;;;;;;;;;2593793;22;20022;-91
2023/09/16 01:10:25;;;;;;;15.13;12.40;;;;;;;;;;2580603;23;20000;-92
2023/09/16 01:11:26;;;;;;;17.17;11.73;;;;;;;;;;2578387;23;20060;-91
2023/09/16 01:12:26;;;;;;;18.70;13.95;;;;;;;;;;2575735;23;20001;-92
2023/09/16 01:13:27;;;;;;;17.75;13.60;;;;;;;;;;2570758;23;20096;-92
2023/09/16 01:14:27;;;;;;;15.02;12.68;;;;;;;;;;2584310;23;20000;-92
2023/09/16 01:15:35;;;;;;;17.30;13.77;;;;;;;;;;2597951;22;20046;-91
2023/09/16 01:16:41;;;;;;;14.32;12.02;;;;;;;;;;2581251;23;20062;-92
2023/09/16 01:17:59;;;;;;;15.48;13.15;;;;;;;;;;2584336;22;19992;-92
2023/09/16 01:19:13;;;;;;;16.13;10.65;;;;;;;;;;2581387;23;20111;-92
2023/09/16 01:20:15;;;;;;;15.30;12.05;;;;;;;;;;2588105;22;19996;-92
2023/09/16 01:21:17;;;;;;;16.73;11.70;;;;;;;;;;2585159;23;20011;-92
2023/09/16 01:22:18;;;;;;;15.40;12.70;;;;;;;;;;2581032;23;20506;-92
2023/09/16 01:23:18;;;;;;;15.88;13.25;;;;;;;;;;2568749;23;19996;-92
2023/09/16 01:24:20;;;;;;;14.82;13.00;;;;;;;;;;2574431;23;20504;-91
2023/09/16 01:25:25;;;;;;;15.20;11.50;;;;;;;;;;2587879;22;20517;-92
2023/09/16 01:26:25;;;;;;;15.20;13.57;;;;;;;;;;2581449;23;20027;-91
2023/09/16 01:27:27;;;;;;;16.77;13.38;;;;;;;;;;2568747;23;19996;-91
2023/09/16 01:28:28;;;;;;;16.10;11.23;;;;;;;;;;2569014;23;20005;-90
2023/09/16 01:29:29;;;;;;;18.15;13.75;;;;;;;;;;2568107;23;20043;-91
2023/09/16 01:30:35;;;;;;;14.77;12.05;;;;;;;;;;2568378;23;20015;-90
2023/09/16 01:31:36;;;;;;;16.67;13.73;;;;;;;;;;2584530;22;20001;-90
2023/09/16 01:32:49;;;;;;;16.80;14.20;;;;;;;;;;2593581;22;20008;-90
2023/09/16 01:33:51;;;;;;;16.02;11.15;;;;;;;;;;2581131;23;20011;-90
2023/09/16 01:34:54;;;;;;;20.27;13.98;;;;;;;;;;2582800;22;20405;-90
2023/09/16 01:36:01;;;;;;;14.32;11.68;;;;;;;;;;2580724;23;20336;-90
2023/09/16 01:37:03;;;;;;;14.52;12.23;;;;;;;;;;2569735;23;20354;-91
2023/09/16 01:38:07;;;;;;;16.98;12.63;;;;;;;;;;2568628;23;20092;-90
2023/09/16 01:39:08;;;;;;;16.38;14.10;;;;;;;;;;2582674;22;20350;-90
2023/09/16 01:40:11;;;;;;;15.82;13.40;;;;;;;;;;2595561;22;20007;-91
2023/09/16 01:41:12;;;;;;;15.15;12.15;;;;;;;;;;2581649;23;20531;-90
2023/09/16 01:42:15;;;;;;;17.23;12.65;;;;;;;;;;2581511;23;20025;-90
2023/09/16 01:43:15;;;;;;;14.77;12.20;;;;;;;;;;2581701;23;19996;-90
2023/09/16 01:44:16;;;;;;;16.48;13.00;;;;;;;;;;2568928;23;20560;-90
2023/09/16 01:45:16;;;;;;;17.67;13.10;;;;;;;;;;2581319;23;19996;-90
2023/09/16 01:46:17;;;;;;;19.48;14.68;;;;;;;;;;2581476;23;19996;-90
2023/09/16 01:47:17;;;;;;;18.77;14.35;;;;;;;;;;2568857;23;20020;-90
2023/09/16 01:48:18;;;;;;;15.98;12.27;;;;;;;;;;2585221;23;20007;-90
2023/09/16 01:49:18;;;;;;;16.35;14.65;;;;;;;;;;2598796;22;19999;-90
2023/09/16 01:50:18;;;;;;;17.90;12.43;;;;;;;;;;2598766;22;20023;-91
2023/09/16 01:51:19;;;;;;;16.23;14.38;;;;;;;;;;2581762;23;20020;-90
2023/09/16 01:52:20;;;;;;;19.25;12.40;;;;;;;;;;2585399;23;20220;-90
2023/09/16 01:53:20;;;;;;;17.13;15.32;;;;;;;;;;2599458;22;20007;-90
2023/09/16 01:54:20;;;;;;;16.75;12.25;;;;;;;;;;2599855;22;19995;-90
2023/09/16 01:55:21;;;;;;;18.17;13.77;;;;;;;;;;2583057;23;20028;-91
2023/09/16 01:56:21;;;;;;;16.00;14.35;;;;;;;;;;2569199;23;20411;-90
2023/09/16 01:57:22;;;;;;;16.23;12.23;;;;;;;;;;2581874;23;20018;-90
2023/09/16 01:58:22;;;;;;;16.65;14.70;;;;;;;;;;2582024;23;20019;-90
2023/09/16 01:59:22;;;;;;;15.88;13.32;;;;;;;;;;2568904;23;20470;-90
2023/09/16 02:00:23;;;;;;;18.20;12.23;;;;;;;;;;2584757;23;20421;-91
2023/09/16 02:01:23;;;;;;;16.38;14.68;;;;;;;;;;2598553;22;19991;-90
2023/09/16 02:02:24;;;;;;;15.20;11.48;;;;;;;;;;2598235;22;20448;-90
2023/09/16 02:03:24;;;;;;;16.70;14.68;;;;;;;;;;2598508;22;20042;-90
2023/09/16 02:04:24;;;;;;;16.73;12.27;;;;;;;;;;2581325;23;20003;-90
2023/09/16 02:05:25;;;;;;;18.40;13.80;;;;;;;;;;2569071;23;20585;-90
2023/09/16 02:06:26;;;;;;;17.33;14.18;;;;;;;;;;2584810;22;20094;-90
2023/09/16 02:07:26;;;;;;;17.00;13.25;;;;;;;;;;2581762;23;20537;-90
2023/09/16 02:08:27;;;;;;;17.40;12.02;;;;;;;;;;2581570;23;20501;-91
2023/09/16 02:09:27;;;;;;;15.77;13.52;;;;;;;;;;2584719;23;20058;-90
2023/09/16 02:10:28;;;;;;;18.35;12.57;;;;;;;;;;2582211;23;20455;-90
2023/09/16 02:11:30;;;;;;;16.48;14.70;;;;;;;;;;2569579;23;20434;-90
2023/09/16 02:12:31;;;;;;;17.50;14.07;;;;;;;;;;2569837;23;20031;-90
2023/09/16 02:13:32;;;;;;;16.13;13.95;;;;;;;;;;2568925;23;20024;-90
2023/09/16 02:14:37;;;;;;;14.90;12.00;;;;;;;;;;2585087;22;20077;-90
2023/09/16 02:15:37;;;;;;;16.90;14.23;;;;;;;;;;2581462;23;20000;-90
2023/09/16 02:16:38;;;;;;;16.08;13.77;;;;;;;;;;2569000;23;20074;-91
2023/09/16 02:17:41;;;;;;;17.05;14.05;;;;;;;;;;2583988;23;20003;-90
2023/09/16 02:18:41;;;;;;;15.98;12.55;;;;;;;;;;2581610;23;20012;-90
2023/09/16 02:19:42;;;;;;;17.45;14.70;;;;;;;;;;2581786;23;20016;-90
2023/09/16 02:20:43;;;;;;;18.75;13.70;;;;;;;;;;2583651;23;20004;-90
2023/09/16 02:21:43;;;;;;;18.35;11.82;;;;;;;;;;2581600;23;20480;-91
2023/09/16 02:22:44;;;;;;;16.80;14.98;;;;;;;;;;2569151;23;20008;-90
2023/09/16 02:23:44;;;;;;;15.93;12.38;;;;;;;;;;2569047;23;20011;-90
2023/09/16 02:24:45;;;;;;;17.92;13.98;;;;;;;;;;2568962;23;20039;-90
2023/09/16 02:25:45;;;;;;;16.25;13.90;;;;;;;;;;2568988;23;20402;-90
2023/09/16 02:26:46;;;;;;;15.60;12.20;;;;;;;;;;2583314;23;20458;-90
2023/09/16 02:27:46;;;;;;;15.98;12.13;;;;;;;;;;2581410;23;19996;-90
2023/09/16 02:28:46;;;;;;;17.77;13.10;;;;;;;;;;2568636;23;20092;-91
2023/09/16 02:29:48;;;;;;;21.40;15.45;;;;;;;;;;2568837;23;20039;-90
2023/09/16 02:30:48;;;;;;;16.90;12.40;;;;;;;;;;2568745;23;20021;-90
2023/09/16 02:31:50;;;;;;;16.13;14.43;;;;;;;;;;2581919;22;20014;-90
2023/09/16 02:34:02;;;;;;;15.33;11.30;;;;;;;;;;2566269;22;19916;-90
2023/09/16 02:35:03;;;;;;;16.50;11.82;;;;;;;;;;2581327;23;20024;-90
2023/09/16 02:36:04;;;;;;;15.23;13.13;;;;;;;;;;2569008;23;20020;-90
2023/09/16 02:37:05;;;;;;;13.77;11.82;;;;;;;;;;2568539;23;20454;-90
2023/09/16 02:38:05;;;;;;;14.88;11.82;;;;;;;;;;2569222;23;20286;-90
2023/09/16 02:39:05;;;;;;;15.45;13.45;;;;;;;;;;2568726;23;20062;-90
2023/09/16 02:40:07;;;;;;;15.50;11.35;;;;;;;;;;2556455;23;20027;-90
2023/09/16 02:41:17;;;;;;;17.14;13.52;;;;;;;;;;2383123;23;10001088;-90
2023/09/16 02:42:17;;;;;;;16.80;12.98;;;;;;;;;;2558146;23;20206;-89
2023/09/16 02:43:18;;;;;;;16.27;12.95;;;;;;;;;;2572146;23;19999;-89
2023/09/16 02:44:18;;;;;;;16.13;11.90;;;;;;;;;;2568599;23;20063;-89
2023/09/16 02:45:19;;;;;;;16.33;12.13;;;;;;;;;;2556400;23;20008;-90
2023/09/16 02:46:19;;;;;;;14.38;11.27;;;;;;;;;;2556507;23;19996;-90
2023/09/16 02:47:20;;;;;;;18.02;12.20;;;;;;;;;;2572415;23;19999;-89
2023/09/16 02:48:20;;;;;;;16.48;11.60;;;;;;;;;;2568812;23;20001;-89
2023/09/16 02:49:21;;;;;;;15.80;12.48;;;;;;;;;;2572166;23;20423;-91
2023/09/16 02:50:21;;;;;;;19.00;13.80;;;;;;;;;;2568014;23;19997;-91
2023/09/16 02:51:21;;;;;;;16.77;11.77;;;;;;;;;;2572278;23;20115;-91
2023/09/16 02:52:22;;;;;;;15.98;11.75;;;;;;;;;;2568640;23;20480;-90
2023/09/16 02:53:22;;;;;;;14.50;11.40;;;;;;;;;;2556493;23;20001;-91
2023/09/16 02:54:23;;;;;;;15.55;11.68;;;;;;;;;;2572468;23;20080;-90
2023/09/16 02:55:23;;;;;;;16.23;11.77;;;;;;;;;;2572771;23;19988;-91
2023/09/16 02:56:24;;;;;;;15.13;11.73;;;;;;;;;;2573071;23;20008;-91
2023/09/16 02:57:24;;;;;;;15.52;12.30;;;;;;;;;;2559519;23;19997;-91
2023/09/16 02:58:24;;;;;;;14.13;12.05;;;;;;;;;;2571975;23;20439;-91
2023/09/16 02:59:25;;;;;;;17.92;13.20;;;;;;;;;;2572641;23;20074;-90
2023/09/16 03:00:25;;;;;;;17.63;12.57;;;;;;;;;;2559252;23;20021;-91
2023/09/16 03:01:25;;;;;;;16.60;11.65;;;;;;;;;;2568676;23;19997;-91
2023/09/16 03:02:26;;;;;;;13.48;11.32;;;;;;;;;;2571914;23;20025;-90
2023/09/16 03:03:26;;;;;;;14.95;12.07;;;;;;;;;;2572722;23;20051;-91
2023/09/16 03:04:27;;;;;;;15.98;12.82;;;;;;;;;;2572430;23;19996;-91
2023/09/16 03:05:29;;;;;;;13.90;11.25;;;;;;;;;;2568850;23;19996;-91
2023/09/16 03:06:29;;;;;;;15.95;13.68;;;;;;;;;;2571479;23;19996;-91
2023/09/16 03:07:29;;;;;;;15.57;11.10;;;;;;;;;;2560354;23;20016;-91
2023/09/16 03:08:30;;;;;;;15.70;11.88;;;;;;;;;;2568795;23;20013;-91
2023/09/16 03:09:31;;;;;;;17.65;14.60;;;;;;;;;;2556372;23;20155;-91
2023/09/16 03:10:33;;;;;;;16.23;12.90;;;;;;;;;;2556366;23;20085;-91
2023/09/16 03:11:37;;;;;;;14.23;12.02;;;;;;;;;;2556476;23;20096;-91
2023/09/16 03:12:37;;;;;;;19.35;10.93;;;;;;;;;;2568400;23;20005;-91
2023/09/16 03:13:38;;;;;;;14.00;12.55;;;;;;;;;;2569057;23;20032;-92
2023/09/16 03:14:38;;;;;;;16.95;11.60;;;;;;;;;;2570668;23;20337;-92
2023/09/16 03:15:45;;;;;;;17.20;12.48;;;;;;;;;;2557660;23;20096;-90
2023/09/16 03:16:46;;;;;;;15.50;11.63;;;;;;;;;;2561216;23;20009;-91
2023/09/16 03:17:46;;;;;;;16.08;12.90;;;;;;;;;;2556769;23;20429;-91
2023/09/16 03:18:50;;;;;;;15.05;11.73;;;;;;;;;;2569799;23;20087;-92
2023/09/16 03:19:50;;;;;;;15.30;11.15;;;;;;;;;;2559571;23;20012;-92
2023/09/16 03:20:51;;;;;;;16.30;11.25;;;;;;;;;;2570995;23;20079;-92
2023/09/16 03:21:51;;;;;;;13.57;12.15;;;;;;;;;;2569494;23;20062;-91
2023/09/16 03:22:52;;;;;;;15.75;12.27;;;;;;;;;;2556511;23;20009;-91
2023/09/16 03:23:52;;;;;;;15.30;10.63;;;;;;;;;;2557164;23;20056;-92
2023/09/16 03:24:52;;;;;;;14.63;10.50;;;;;;;;;;2569591;23;20004;-92
2023/09/16 03:25:53;;;;;;;12.85;10.13;;;;;;;;;;2558631;23;20009;-91
2023/09/16 03:26:53;;;;;;;14.63;12.30;;;;;;;;;;2558202;23;20009;-92
2023/09/16 03:27:54;;;;;;;15.77;11.45;;;;;;;;;;2570547;23;20058;-91
2023/09/16 03:28:54;;;;;;;15.27;10.83;;;;;;;;;;2112643;23;10444082;-90
2023/09/16 03:29:55;;;;;;;12.32;10.35;;;;;;;;;;2558319;23;20347;-90
2023/09/16 03:31:08;;;;;;;13.85;12.35;;;;;;;;;;2573212;23;20001;-91
2023/09/16 03:32:08;;;;;;;20.15;10.23;;;;;;;;;;2571637;23;20071;-91
2023/09/16 03:33:09;;;;;;;14.45;10.10;;;;;;;;;;2568606;23;20013;-91
2023/09/16 03:34:09;;;;;;;15.65;10.98;;;;;;;;;;2582940;23;20004;-92
2023/09/16 03:35:09;;;;;;;16.30;10.52;;;;;;;;;;2581479;23;20008;-91
2023/09/16 03:36:10;;;;;;;18.67;10.88;;;;;;;;;;2569188;23;20012;-91
2023/09/16 03:37:10;;;;;;;15.57;12.45;;;;;;;;;;2569270;23;20008;-91
2023/09/16 03:38:11;;;;;;;14.63;10.52;;;;;;;;;;2575119;23;19989;-91
2023/09/16 03:39:11;;;;;;;15.30;11.73;;;;;;;;;;2593315;22;20004;-90
2023/09/16 03:40:12;;;;;;;16.10;10.85;;;;;;;;;;2593418;22;20007;-91
2023/09/16 03:41:13;;;;;;;13.50;11.88;;;;;;;;;;2581143;22;20016;-91
2023/09/16 03:42:13;;;;;;;15.00;11.48;;;;;;;;;;2572505;23;20091;-92
2023/09/16 03:43:14;;;;;;;13.25;10.55;;;;;;;;;;2569799;23;19997;-91
2023/09/16 03:44:15;;;;;;;16.48;11.02;;;;;;;;;;2587400;23;20438;-91
2023/09/16 03:45:15;;;;;;;17.05;11.73;;;;;;;;;;2587329;22;20007;-91
2023/09/16 03:46:16;;;;;;;16.60;11.60;;;;;;;;;;2569393;23;20007;-91
2023/09/16 03:47:16;;;;;;;14.68;10.48;;;;;;;;;;2572503;23;19993;-92
2023/09/16 03:48:17;;;;;;;16.95;12.35;;;;;;;;;;2572530;23;20001;-91
2023/09/16 03:49:17;;;;;;;16.75;11.70;;;;;;;;;;2570542;23;20001;-91
2023/09/16 03:50:18;;;;;;;14.18;11.05;;;;;;;;;;2569606;23;20008;-91
2023/09/16 03:51:19;;;;;;;16.50;11.77;;;;;;;;;;2556338;23;20004;-91
2023/09/16 03:52:19;;;;;;;15.13;11.60;;;;;;;;;;2557303;23;20439;-91
2023/09/16 03:53:25;;;;;;;16.88;13.27;;;;;;;;;;2568754;23;20347;-91
2023/09/16 03:54:26;;;;;;;15.82;12.38;;;;;;;;;;2558231;23;20032;-90
2023/09/16 03:55:27;;;;;;;19.05;12.77;;;;;;;;;;2559295;23;19997;-92
2023/09/16 03:56:27;;;;;;;18.58;12.52;;;;;;;;;;2557741;23;20063;-91
2023/09/16 03:57:28;;;;;;;17.20;11.98;;;;;;;;;;2557255;23;20439;-91
2023/09/16 03:58:28;;;;;;;19.42;12.00;;;;;;;;;;2557324;23;20000;-91
2023/09/16 03:59:29;;;;;;;17.85;11.77;;;;;;;;;;2573477;23;20462;-91
2023/09/16 04:00:29;;;;;;;15.77;11.75;;;;;;;;;;2586495;23;20409;-91
2023/09/16 04:01:30;;;;;;;15.32;11.82;;;;;;;;;;2586826;23;20071;-91
2023/09/16 04:02:30;;;;;;;15.70;12.27;;;;;;;;;;2570834;23;20154;-91
2023/09/16 04:03:31;;;;;;;17.30;11.60;;;;;;;;;;2569367;23;20165;-91
2023/09/16 04:04:31;;;;;;;16.52;12.38;;;;;;;;;;2556001;23;20414;-90
2023/09/16 04:05:32;;;;;;;17.23;12.65;;;;;;;;;;2556396;23;20001;-91
2023/09/16 04:06:32;;;;;;;20.92;13.57;;;;;;;;;;2556484;23;20043;-91
2023/09/16 04:07:32;;;;;;;18.05;12.02;;;;;;;;;;2556084;23;20311;-91
2023/09/16 04:08:33;;;;;;;15.82;11.13;;;;;;;;;;2556047;23;20096;-90
2023/09/16 04:09:34;;;;;;;15.30;12.68;;;;;;;;;;2571328;23;19996;-91
2023/09/16 04:10:34;;;;;;;17.77;12.80;;;;;;;;;;2568777;23;20283;-91
2023/09/16 04:11:34;;;;;;;15.63;12.90;;;;;;;;;;2142121;23;10001392;-92
2023/09/16 04:12:37;;;;;;;18.33;11.52;;;;;;;;;;2570971;23;20399;-92
2023/09/16 04:13:38;;;;;;;16.50;11.65;;;;;;;;;;2574551;23;20075;-92
2023/09/16 04:14:38;;;;;;;16.83;11.85;;;;;;;;;;2568583;23;20055;-92
2023/09/16 04:15:39;;;;;;;16.38;11.80;;;;;;;;;;2569448;23;20005;-92
2023/09/16 04:16:39;;;;;;;16.23;11.45;;;;;;;;;;2568809;23;20001;-92
2023/09/16 04:17:39;;;;;;;16.05;12.40;;;;;;;;;;2552917;23;20000;-91
2023/09/16 04:18:40;;;;;;;15.65;12.18;;;;;;;;;;2556013;23;20004;-92
2023/09/16 04:19:40;;;;;;;16.92;12.40;;;;;;;;;;2556103;23;20068;-91
2023/09/16 04:20:41;;;;;;;16.95;11.82;;;;;;;;;;2570341;23;20001;-92
2023/09/16 04:21:42;;;;;;;16.73;13.10;;;;;;;;;;2568477;23;20461;-91
2023/09/16 04:22:42;;;;;;;18.38;12.02;;;;;;;;;;2556309;23;20055;-92
2023/09/16 04:23:43;;;;;;;14.77;11.40;;;;;;;;;;2556237;23;20067;-91
2023/09/16 04:24:43;;;;;;;13.05;10.63;;;;;;;;;;2556704;23;20051;-91
2023/09/16 04:25:43;;;;;;;14.77;11.63;;;;;;;;;;2556620;23;20071;-91
2023/09/16 04:26:44;;;;;;;15.13;11.75;;;;;;;;;;2569059;23;20010;-91
2023/09/16 04:27:44;;;;;;;16.85;12.90;;;;;;;;;;2569314;23;20051;-93
2023/09/16 04:28:44;;;;;;;18.23;12.27;;;;;;;;;;2569549;23;20435;-93
2023/09/16 04:29:45;;;;;;;14.98;12.15;;;;;;;;;;2556593;23;20012;-92
2023/09/16 04:30:50;;;;;;;18.73;12.10;;;;;;;;;;2556430;23;20419;-91
2023/09/16 04:31:51;;;;;;;15.18;11.15;;;;;;;;;;2556665;23;20017;-91
2023/09/16 04:32:53;;;;;;;15.65;12.10;;;;;;;;;;2556005;23;20063;-91
2023/09/16 04:33:54;;;;;;;15.27;11.75;;;;;;;;;;2556358;23;20005;-91
2023/09/16 04:34:59;;;;;;;17.08;12.35;;;;;;;;;;2568619;23;20079;-91
2023/09/16 04:36:00;;;;;;;15.45;11.55;;;;;;;;;;2568774;23;20019;-92
2023/09/16 04:37:02;;;;;;;15.82;12.48;;;;;;;;;;2556203;23;20028;-91
2023/09/16 04:38:03;;;;;;;14.23;10.70;;;;;;;;;;2556273;23;20016;-91
2023/09/16 04:39:04;;;;;;;16.42;12.73;;;;;;;;;;2569062;23;20113;-91
2023/09/16 04:40:10;;;;;;;17.60;12.35;;;;;;;;;;2568577;23;20015;-91
2023/09/16 04:41:13;;;;;;;13.32;10.65;;;;;;;;;;2556971;23;20001;-91
2023/09/16 04:42:13;;;;;;;14.98;11.35;;;;;;;;;;2573090;23;19996;-91
2023/09/16 04:43:14;;;;;;;15.07;12.45;;;;;;;;;;2585727;23;20323;-91
2023/09/16 04:44:14;;;;;;;13.80;12.07;;;;;;;;;;2568352;23;20001;-92
2023/09/16 04:45:15;;;;;;;17.33;11.93;;;;;;;;;;2555970;23;20008;-91
2023/09/16 04:46:18;;;;;;;16.58;13.35;;;;;;;;;;2572119;23;20277;-92
2023/09/16 04:47:18;;;;;;;14.85;11.13;;;;;;;;;;2568434;23;20007;-92
2023/09/16 04:48:22;;;;;;;14.07;12.45;;;;;;;;;;2555936;23;20005;-91
2023/09/16 04:49:23;;;;;;;14.35;12.77;;;;;;;;;;2556504;23;20005;-91
2023/09/16 04:50:24;;;;;;;15.77;11.90;;;;;;;;;;2556191;23;20383;-92
2023/09/16 04:51:24;;;;;;;14.05;11.95;;;;;;;;;;2556314;23;20021;-91
2023/09/16 04:52:27;;;;;;;16.38;11.82;;;;;;;;;;2556106;23;20057;-92
2023/09/16 04:53:27;;;;;;;13.60;12.20;;;;;;;;;;2556288;23;20474;-92
2023/09/16 04:54:28;;;;;;;12.82;11.52;;;;;;;;;;2555988;23;20083;-91
2023/09/16 04:55:28;;;;;;;12.75;11.40;;;;;;;;;;2556055;23;20012;-91
2023/09/16 04:56:29;;;;;;;13.13;11.73;;;;;;;;;;2571509;23;20505;-92
2023/09/16 04:57:29;;;;;;;12.07;10.80;;;;;;;;;;2568351;23;20398;-92
2023/09/16 04:58:31;;;;;;;12.90;11.35;;;;;;;;;;2571620;23;20020;-92
2023/09/16 04:59:32;;;;;;;13.30;11.60;;;;;;;;;;2568401;23;20504;-92
2023/09/16 05:00:36;;;;;;;12.77;11.18;;;;;;;;;;2571561;23;20397;-92
2023/09/16 05:01:36;;;;;;;14.57;11.38;;;;;;;;;;2568872;23;20004;-92
2023/09/16 05:02:36;;;;;;;14.25;11.13;;;;;;;;;;2568542;23;20060;-92
2023/09/16 05:03:37;;;;;;;14.00;11.20;;;;;;;;;;2571215;23;20339;-92
2023/09/16 05:04:37;;;;;;;13.38;10.68;;;;;;;;;;2568309;23;20009;-92
2023/09/16 05:05:38;;;;;;;13.50;11.77;;;;;;;;;;2556408;23;20076;-92
2023/09/16 05:06:38;;;;;;;14.25;11.32;;;;;;;;;;2556038;23;20033;-92
2023/09/16 05:07:38;;;;;;;13.80;11.05;;;;;;;;;;2570803;23;20012;-92
2023/09/16 05:08:39;;;;;;;13.90;11.57;;;;;;;;;;2584270;23;20378;-92
2023/09/16 05:09:39;;;;;;;12.15;10.85;;;;;;;;;;2568634;23;20012;-92
2023/09/16 05:10:40;;;;;;;15.88;11.65;;;;;;;;;;2555990;23;20016;-92
2023/09/16 05:11:40;;;;;;;15.98;12.13;;;;;;;;;;2571059;23;20093;-92
2023/09/16 05:12:41;;;;;;;12.68;11.15;;;;;;;;;;2568677;23;20004;-92
2023/09/16 05:13:42;;;;;;;13.05;11.65;;;;;;;;;;2556695;23;20146;-92
2023/09/16 05:14:42;;;;;;;14.98;12.82;;;;;;;;;;2557076;23;20459;-92
2023/09/16 05:15:47;;;;;;;13.68;12.07;;;;;;;;;;2571443;23;20035;-91
2023/09/16 05:16:47;;;;;;;15.52;12.85;;;;;;;;;;2584695;23;20030;-92
2023/09/16 05:17:47;;;;;;;15.30;12.82;;;;;;;;;;2569413;23;20015;-92
2023/09/16 05:18:48;;;;;;;15.40;13.05;;;;;;;;;;2571257;23;20028;-92
2023/09/16 05:19:48;;;;;;;16.02;13.23;;;;;;;;;;2569419;23;20015;-93
2023/09/16 05:20:52;;;;;;;16.50;12.77;;;;;;;;;;2570459;23;20019;-91
2023/09/16 05:21:53;;;;;;;14.82;13.25;;;;;;;;;;2559953;23;20025;-92
2023/09/16 05:22:53;;;;;;;15.15;13.18;;;;;;;;;;2572196;23;20042;-92
2023/09/16 05:23:53;;;;;;;16.73;14.30;;;;;;;;;;2571741;23;20011;-92
2023/09/16 05:24:54;;;;;;;15.90;13.85;;;;;;;;;;2571450;23;20111;-91
2023/09/16 05:25:54;;;;;;;16.70;14.15;;;;;;;;;;2571914;23;20146;-91
2023/09/16 05:26:55;;;;;;;16.05;14.27;;;;;;;;;;2570135;23;20026;-91
2023/09/16 05:27:55;;;;;;;16.25;14.55;;;;;;;;;;2570888;23;20071;-91
2023/09/16 05:28:56;;;;;;;16.50;14.77;;;;;;;;;;2584428;23;20374;-91
2023/09/16 05:29:57;;;;;;;17.63;15.40;;;;;;;;;;2570603;23;20012;-92
2023/09/16 05:30:57;;;;;;;17.77;14.70;;;;;;;;;;2570397;23;20023;-92
2023/09/16 05:31:58;;;;;;;19.13;15.43;;;;;;;;;;2569567;23;20445;-92
2023/09/16 05:32:59;;;;;;;18.27;15.50;;;;;;;;;;2557113;23;20490;-92
2023/09/16 05:33:59;;;;;;;17.77;15.02;;;;;;;;;;2569331;23;20012;-92
2023/09/16 05:35:00;;;;;;;17.42;14.38;;;;;;;;;;2557032;23;20059;-92
2023/09/16 05:36:01;;;;;;;15.55;13.95;;;;;;;;;;2116478;23;10325956;-92
2023/09/16 05:37:01;;;;;;;17.20;14.25;;;;;;;;;;2569969;23;20020;-91
2023/09/16 05:38:02;;;;;;;17.92;14.43;;;;;;;;;;2569602;23;20470;-91
2023/09/16 05:39:02;;;;;;;17.77;14.27;;;;;;;;;;2570333;23;20011;-92
2023/09/16 05:40:03;;;;;;;17.58;14.30;;;;;;;;;;2569983;23;20087;-90
2023/09/16 05:41:03;;;;;;;15.73;13.88;;;;;;;;;;2570547;23;20373;-92
2023/09/16 05:42:04;;;;;;;19.95;15.10;;;;;;;;;;2569782;23;20143;-92
2023/09/16 05:43:05;;;;;;;17.98;14.75;;;;;;;;;;2557095;23;20013;-92
2023/09/16 05:44:05;;;;;;;15.57;13.98;;;;;;;;;;2557682;23;20009;-91
2023/09/16 05:45:06;;;;;;;15.82;13.77;;;;;;;;;;2557287;23;20020;-91
2023/09/16 05:46:06;;;;;;;18.05;13.23;;;;;;;;;;2570113;23;20454;-92
2023/09/16 05:47:07;;;;;;;18.88;15.18;;;;;;;;;;2569530;23;20032;-92
2023/09/16 05:48:07;;;;;;;18.92;14.63;;;;;;;;;;2556839;23;20119;-91
2023/09/16 05:49:09;;;;;;;19.35;14.57;;;;;;;;;;2557114;23;20013;-92
2023/09/16 05:50:09;;;;;;;14.77;12.52;;;;;;;;;;2569611;23;20603;-92
2023/09/16 05:51:10;;;;;;;15.32;13.75;;;;;;;;;;2557276;23;20009;-91
2023/09/16 05:52:10;;;;;;;15.07;13.52;;;;;;;;;;2557223;23;20009;-91
2023/09/16 05:53:11;;;;;;;14.38;12.93;;;;;;;;;;2573523;23;20009;-91
2023/09/16 05:54:13;;;;;;;16.88;13.73;;;;;;;;;;2569651;23;20084;-92
2023/09/16 05:55:13;;;;;;;16.98;13.73;;;;;;;;;;2568032;23;20350;-91
2023/09/16 05:56:14;;;;;;;14.95;13.30;;;;;;;;;;2573559;23;20064;-92
2023/09/16 05:57:14;;;;;;;16.92;12.85;;;;;;;;;;2581966;23;20046;-92